createdAt,value
2023-05-16T00:02:00.290Z,22.33
2023-05-16T00:04:27.451Z,22.00
2023-05-16T00:06:54.852Z,25.33
2023-05-16T00:09:21.812Z,20.00
2023-05-16T00:11:48.735Z,21.00
2023-05-16T00:14:15.729Z,27.00
2023-05-16T00:16:42.734Z,25.00
2023-05-16T00:19:10.625Z,22.33
2023-05-16T00:21:37.536Z,23.00
2023-05-16T00:24:05.269Z,23.00
2023-05-16T00:26:32.152Z,24.67
2023-05-16T00:28:59.052Z,23.33
2023-05-16T00:31:26.139Z,23.00
2023-05-16T00:33:53.026Z,20.33
2023-05-16T00:36:20.986Z,22.00
2023-05-16T00:38:49.917Z,21.33
2023-05-16T00:41:17.328Z,23.00
2023-05-16T00:43:44.289Z,17.00
2023-05-16T00:46:11.308Z,22.33
2023-05-16T00:48:38.394Z,21.00
2023-05-16T00:51:09.554Z,23.33
2023-05-16T00:53:37.361Z,25.00
2023-05-16T00:56:06.763Z,24.67
2023-05-16T00:58:34.177Z,21.33
2023-05-16T01:01:04.003Z,22.00
2023-05-16T01:03:31.743Z,24.00
2023-05-16T01:06:00.169Z,26.67
2023-05-16T01:08:27.095Z,25.67
2023-05-16T01:11:18.663Z,22.33
2023-05-16T01:14:09.699Z,24.33
2023-05-16T01:16:47.168Z,26.00
2023-05-16T01:19:20.707Z,19.67
2023-05-16T01:22:05.596Z,22.67
2023-05-16T01:25:01.478Z,23.00
2023-05-16T01:27:30.137Z,23.67
2023-05-16T01:29:58.412Z,24.00
2023-05-16T01:32:25.479Z,24.33
2023-05-16T01:34:52.896Z,24.00
2023-05-16T01:37:38.847Z,22.00
2023-05-16T01:40:12.299Z,25.67
2023-05-16T01:42:45.185Z,22.33
2023-05-16T01:45:29.520Z,22.00
2023-05-16T01:48:07.778Z,22.67
2023-05-16T01:50:42.368Z,19.00
2023-05-16T01:53:20.827Z,19.67
2023-05-16T01:55:57.749Z,22.00
2023-05-16T01:58:28.627Z,20.33
2023-05-16T02:01:03.890Z,23.67
2023-05-16T02:03:31.990Z,20.00
2023-05-16T02:05:59.254Z,19.00
2023-05-16T02:08:26.823Z,22.33
2023-05-16T02:10:53.640Z,24.67
2023-05-16T02:13:21.306Z,23.67
2023-05-16T02:15:48.157Z,20.00
2023-05-16T02:18:15.163Z,23.00
2023-05-16T02:20:43.325Z,23.00
2023-05-16T02:23:10.228Z,17.00
2023-05-16T02:25:37.366Z,24.00
2023-05-16T02:28:04.359Z,24.33
2023-05-16T02:30:31.292Z,22.67
2023-05-16T02:32:58.161Z,24.33
2023-05-16T02:35:25.396Z,12.67
2023-05-16T02:37:52.352Z,25.00
2023-05-16T02:40:19.307Z,25.33
2023-05-16T02:42:46.186Z,24.33
2023-05-16T02:45:12.998Z,28.00
2023-05-16T02:47:39.996Z,25.67
2023-05-16T02:50:07.298Z,27.33
2023-05-16T02:52:34.953Z,25.33
2023-05-16T02:55:16.922Z,23.33
2023-05-16T02:57:48.901Z,27.00
2023-05-16T03:00:18.383Z,23.67
2023-05-16T03:02:45.714Z,25.67
2023-05-16T03:05:12.823Z,23.00
2023-05-16T03:07:40.477Z,23.00
2023-05-16T03:10:07.994Z,22.00
2023-05-16T03:12:34.926Z,23.00
2023-05-16T03:15:01.991Z,22.00
2023-05-16T03:17:29.522Z,22.00
2023-05-16T03:19:57.396Z,21.00
2023-05-16T03:22:24.280Z,20.33
2023-05-16T03:24:51.196Z,23.00
2023-05-16T03:27:18.109Z,26.33
2023-05-16T03:29:45.002Z,25.00
2023-05-16T03:32:12.097Z,26.00
2023-05-16T03:34:39.422Z,24.67
2023-05-16T03:37:06.586Z,25.67
2023-05-16T03:39:33.666Z,44.67
2023-05-16T03:42:00.528Z,25.33
2023-05-16T03:44:27.493Z,27.00
2023-05-16T03:46:56.026Z,27.67
2023-05-16T03:49:28.185Z,30.00
2023-05-16T03:51:55.632Z,25.00
2023-05-16T03:54:22.585Z,25.00
2023-05-16T03:56:49.684Z,25.00
2023-05-16T03:59:16.914Z,24.33
2023-05-16T04:01:43.835Z,25.67
2023-05-16T04:04:10.806Z,25.00
2023-05-16T04:06:37.787Z,18.00
2023-05-16T04:09:04.629Z,23.00
2023-05-16T04:11:32.028Z,22.67
2023-05-16T04:13:59.691Z,22.67
2023-05-16T04:16:26.686Z,20.67
2023-05-16T04:18:53.613Z,25.00
2023-05-16T04:21:20.464Z,24.33
2023-05-16T04:23:47.316Z,26.00
2023-05-16T04:26:14.642Z,25.00
2023-05-16T04:28:41.681Z,26.33
2023-05-16T04:31:08.713Z,26.33
2023-05-16T04:33:35.662Z,25.67
2023-05-16T04:36:03.969Z,23.33
2023-05-16T04:38:31.361Z,26.00
2023-05-16T04:40:58.622Z,26.67
2023-05-16T04:43:26.970Z,32.00
2023-05-16T04:45:54.401Z,32.33
2023-05-16T04:48:21.534Z,36.67
2023-05-16T04:50:48.377Z,26.33
2023-05-16T04:53:15.402Z,40.33
2023-05-16T04:55:42.449Z,33.00
2023-05-16T04:58:09.461Z,33.00
2023-05-16T05:00:36.399Z,27.00
2023-05-16T05:03:03.382Z,27.00
2023-05-16T05:05:38.552Z,30.33
2023-05-16T05:08:06.664Z,25.00
2023-05-16T05:10:33.513Z,30.00
2023-05-16T05:13:00.406Z,28.67
2023-05-16T05:15:27.933Z,34.67
2023-05-16T05:17:55.101Z,34.00
2023-05-16T05:20:22.065Z,27.00
2023-05-16T05:22:49.049Z,27.33
2023-05-16T05:25:15.936Z,25.33
2023-05-16T05:27:42.935Z,23.33
2023-05-16T05:30:10.449Z,22.00
2023-05-16T05:32:37.646Z,21.25
2023-05-16T05:35:04.954Z,24.33
2023-05-16T05:37:32.417Z,24.67
2023-05-16T05:39:59.458Z,23.67
2023-05-16T05:42:26.328Z,24.67
2023-05-16T05:44:53.213Z,26.00
2023-05-16T05:47:20.249Z,36.00
2023-05-16T05:49:48.684Z,21.00
2023-05-16T05:52:15.687Z,27.67
2023-05-16T05:54:42.550Z,29.00
2023-05-16T05:57:09.498Z,29.00
2023-05-16T05:59:36.395Z,25.33
2023-05-16T06:02:03.391Z,27.00
2023-05-16T06:04:30.376Z,30.00
2023-05-16T06:06:57.249Z,28.67
2023-05-16T06:09:24.121Z,31.67
2023-05-16T06:11:51.267Z,25.67
2023-05-16T06:14:18.189Z,33.67
2023-05-16T06:16:45.102Z,28.00
2023-05-16T06:19:16.084Z,29.67
2023-05-16T06:21:43.785Z,24.00
2023-05-16T06:24:12.380Z,33.33
2023-05-16T06:26:39.247Z,26.67
2023-05-16T06:29:06.269Z,28.33
2023-05-16T06:31:33.177Z,26.67
2023-05-16T06:34:00.228Z,30.67
2023-05-16T06:36:27.307Z,33.67
2023-05-16T06:38:54.179Z,33.33
2023-05-16T06:41:21.824Z,33.33
2023-05-16T06:43:49.431Z,31.33
2023-05-16T06:46:16.587Z,30.75
2023-05-16T06:48:43.647Z,32.50
2023-05-16T06:51:10.639Z,23.00
2023-05-16T06:53:37.608Z,39.33
2023-05-16T06:56:04.829Z,37.67
2023-05-16T06:58:31.953Z,44.67
2023-05-16T07:00:58.874Z,40.33
2023-05-16T07:03:26.525Z,31.33
2023-05-16T07:05:53.840Z,33.67
2023-05-16T07:08:20.808Z,31.00
2023-05-16T07:10:47.872Z,24.25
2023-05-16T07:13:14.786Z,28.75
2023-05-16T07:15:41.724Z,26.75
2023-05-16T07:18:08.776Z,22.25
2023-05-16T07:20:36.029Z,24.00
2023-05-16T07:23:03.032Z,24.25
2023-05-16T07:25:30.409Z,22.25
2023-05-16T07:27:57.492Z,26.50
2023-05-16T07:30:24.661Z,33.33
2023-05-16T07:32:51.812Z,22.00
2023-05-16T07:35:19.063Z,12.75
2023-05-16T07:37:46.007Z,17.75
2023-05-16T07:40:13.686Z,21.00
2023-05-16T07:42:40.806Z,17.25
2023-05-16T07:45:08.469Z,17.25
2023-05-16T07:47:36.089Z,20.50
2023-05-16T07:50:05.465Z,22.00
2023-05-16T07:52:32.404Z,15.75
2023-05-16T07:54:59.320Z,22.75
2023-05-16T07:57:26.282Z,18.50
2023-05-16T07:59:53.494Z,21.00
2023-05-16T08:02:20.950Z,17.00
2023-05-16T08:04:49.137Z,23.00
2023-05-16T08:07:16.071Z,19.00
2023-05-16T08:09:43.022Z,18.75
2023-05-16T08:12:10.100Z,16.75
2023-05-16T08:14:37.232Z,27.25
2023-05-16T08:17:04.637Z,20.75
2023-05-16T08:19:33.103Z,22.50
2023-05-16T08:22:00.121Z,21.25
2023-05-16T08:24:27.156Z,20.25
2023-05-16T08:26:54.223Z,7.75
2023-05-16T08:29:21.156Z,20.25
2023-05-16T08:31:48.775Z,7.00
2023-05-16T08:34:16.011Z,14.75
2023-05-16T08:36:43.104Z,20.75
2023-05-16T08:39:11.733Z,17.75
2023-05-16T08:41:39.310Z,15.50
2023-05-16T08:44:06.897Z,10.75
2023-05-16T08:46:35.905Z,9.50
2023-05-16T08:49:10.397Z,7.00
2023-05-16T08:51:38.503Z,7.25
2023-05-16T08:54:11.989Z,6.25
2023-05-16T08:56:41.126Z,8.75
2023-05-16T08:59:08.101Z,6.00
2023-05-16T09:01:36.164Z,7.00
2023-05-16T09:04:04.393Z,7.75
2023-05-16T09:06:31.786Z,8.00
2023-05-16T09:08:58.865Z,5.25
2023-05-16T09:11:25.996Z,6.25
2023-05-16T09:13:52.948Z,4.50
2023-05-16T09:16:20.745Z,4.00
2023-05-16T09:18:55.515Z,4.00
2023-05-16T09:21:25.881Z,5.00
2023-05-16T09:23:52.862Z,4.00
2023-05-16T09:26:20.095Z,2.00
2023-05-16T09:28:47.085Z,6.00
2023-05-16T09:31:26.792Z,5.00
2023-05-16T09:33:56.596Z,5.00
2023-05-16T09:36:23.715Z,3.75
2023-05-16T09:38:52.561Z,6.75
2023-05-16T09:41:21.678Z,6.25
2023-05-16T09:43:48.759Z,4.25
2023-05-16T09:46:16.268Z,4.00
2023-05-16T09:48:49.368Z,13.50
2023-05-16T09:51:16.475Z,9.50
2023-05-16T09:53:43.820Z,8.00
2023-05-16T09:56:12.676Z,6.00
2023-05-16T09:58:41.334Z,10.50
2023-05-16T10:01:09.575Z,11.00
2023-05-16T10:03:38.881Z,11.50
2023-05-16T10:06:07.558Z,11.25
2023-05-16T10:08:36.920Z,12.25
2023-05-16T10:11:05.978Z,9.00
2023-05-16T10:13:35.291Z,11.00
2023-05-16T10:16:08.036Z,11.50
2023-05-16T10:18:36.483Z,8.75
2023-05-16T10:21:12.238Z,9.25
2023-05-16T10:23:43.582Z,11.25
2023-05-16T10:26:14.293Z,7.50
2023-05-16T10:28:42.097Z,10.50
2023-05-16T10:31:10.692Z,10.50
2023-05-16T10:33:38.933Z,9.75
2023-05-16T10:36:07.133Z,10.00
2023-05-16T10:38:34.875Z,7.75
2023-05-16T10:41:02.298Z,8.00
2023-05-16T10:43:33.638Z,10.50
2023-05-16T10:46:07.342Z,8.50
2023-05-16T10:48:36.672Z,3.00
2023-05-16T10:51:05.688Z,10.50
2023-05-16T10:53:34.881Z,8.25
2023-05-16T10:56:01.892Z,10.00
2023-05-16T10:58:38.643Z,9.25
2023-05-16T11:01:24.888Z,14.50
2023-05-16T11:04:00.885Z,9.50
2023-05-16T11:06:31.106Z,10.00
2023-05-16T11:09:10.973Z,8.75
2023-05-16T11:11:53.614Z,7.50
2023-05-16T11:14:32.919Z,5.75
2023-05-16T11:17:14.953Z,10.00
2023-05-16T11:19:52.429Z,6.00
2023-05-16T11:22:19.416Z,6.00
2023-05-16T11:24:53.391Z,5.75
2023-05-16T11:27:35.005Z,7.33
2023-05-16T11:30:12.028Z,5.00
2023-05-16T11:32:43.085Z,5.75
2023-05-16T11:35:14.729Z,5.25
2023-05-16T11:37:43.483Z,5.25
2023-05-16T11:40:12.846Z,8.25
2023-05-16T11:42:47.859Z,4.75
2023-05-16T11:45:19.794Z,12.50
2023-05-16T11:47:48.274Z,7.25
2023-05-16T11:50:20.927Z,7.50
2023-05-16T11:52:54.657Z,4.75
2023-05-16T11:55:36.882Z,6.00
2023-05-16T11:58:08.228Z,5.50
2023-05-16T12:00:35.450Z,6.50
2023-05-16T12:03:04.721Z,6.50
2023-05-16T12:05:35.812Z,8.75
2023-05-16T12:08:05.590Z,6.00
2023-05-16T12:10:36.322Z,6.00
2023-05-16T12:13:04.225Z,7.50
2023-05-16T12:15:33.261Z,8.75
2023-05-16T12:18:00.397Z,7.50
2023-05-16T12:20:27.548Z,6.00
2023-05-16T12:22:58.542Z,6.50
2023-05-16T12:25:32.231Z,8.25
2023-05-16T12:28:04.562Z,7.00
2023-05-16T12:30:33.083Z,7.75
2023-05-16T12:33:11.859Z,11.00
2023-05-16T12:35:41.377Z,9.75
2023-05-16T12:38:10.634Z,10.00
2023-05-16T12:40:39.640Z,9.00
2023-05-16T12:43:27.879Z,9.25
2023-05-16T12:45:58.636Z,8.00
2023-05-16T12:48:34.735Z,7.75
2023-05-16T12:51:15.866Z,7.00
2023-05-16T12:54:08.748Z,8.00
2023-05-16T12:56:40.532Z,9.50
2023-05-16T12:59:08.928Z,6.50
2023-05-16T13:01:36.887Z,6.50
2023-05-16T13:04:05.232Z,7.75
2023-05-16T13:06:40.109Z,7.25
2023-05-16T13:09:12.679Z,6.00
2023-05-16T13:11:39.683Z,4.00
2023-05-16T13:14:06.584Z,7.00
2023-05-16T13:16:33.630Z,8.50
2023-05-16T13:19:02.507Z,8.00
2023-05-16T13:21:31.835Z,9.50
2023-05-16T13:23:59.483Z,10.25
2023-05-16T13:26:27.475Z,5.00
2023-05-16T13:28:55.254Z,10.00
2023-05-16T13:31:22.653Z,4.00
2023-05-16T13:33:49.848Z,6.00
2023-05-16T13:36:16.834Z,5.25
2023-05-16T13:38:43.949Z,5.00
2023-05-16T13:41:10.901Z,7.75
2023-05-16T13:43:38.032Z,6.25
2023-05-16T13:46:04.964Z,7.50
2023-05-16T13:48:31.907Z,7.00
2023-05-16T13:50:58.867Z,7.00
2023-05-16T13:53:26.462Z,8.25
2023-05-16T13:55:53.448Z,3.75
2023-05-16T13:58:20.334Z,5.25
2023-05-16T14:00:48.682Z,6.50
2023-05-16T14:03:15.971Z,5.00
2023-05-16T14:05:43.114Z,3.25
2023-05-16T14:08:10.162Z,7.50
2023-05-16T14:10:37.065Z,7.75
2023-05-16T14:13:04.035Z,10.50
2023-05-16T14:15:31.200Z,8.00
2023-05-16T14:18:02.137Z,8.25
2023-05-16T14:20:28.989Z,7.50
2023-05-16T14:22:57.114Z,8.50
2023-05-16T14:25:23.987Z,7.00
2023-05-16T14:27:51.236Z,4.25
2023-05-16T14:30:18.181Z,13.25
2023-05-16T14:32:45.150Z,24.00
2023-05-16T14:35:12.138Z,5.00
2023-05-16T14:37:39.113Z,16.25
2023-05-16T14:40:06.969Z,9.25
2023-05-16T14:42:33.986Z,15.00
2023-05-16T14:45:01.541Z,13.75
2023-05-16T14:47:31.472Z,15.75
2023-05-16T14:49:58.508Z,9.50
2023-05-16T14:52:25.465Z,15.00
2023-05-16T14:54:52.510Z,13.00
2023-05-16T14:57:19.438Z,13.75
2023-05-16T14:59:48.498Z,8.50
2023-05-16T15:02:15.790Z,13.25
2023-05-16T15:04:43.029Z,13.75
2023-05-16T15:07:09.956Z,13.00
2023-05-16T15:09:36.951Z,13.50
2023-05-16T15:12:04.067Z,15.25
2023-05-16T15:14:30.950Z,13.25
2023-05-16T15:16:57.858Z,14.25
2023-05-16T15:19:25.586Z,14.00
2023-05-16T15:21:52.505Z,20.50
2023-05-16T15:24:19.777Z,10.75
2023-05-16T15:26:46.788Z,11.50
2023-05-16T15:29:13.784Z,13.75
2023-05-16T15:31:40.855Z,11.25
2023-05-16T15:34:08.716Z,11.25
2023-05-16T15:36:35.662Z,9.75
2023-05-16T15:39:02.650Z,10.25
2023-05-16T15:41:56.346Z,9.00
2023-05-16T15:44:16.501Z,7.75
2023-05-16T15:46:43.364Z,10.25
2023-05-16T15:49:10.755Z,6.00
2023-05-16T15:51:37.600Z,11.00
2023-05-16T15:54:04.962Z,10.25
2023-05-16T15:56:32.500Z,8.25
2023-05-16T15:58:59.518Z,9.25
2023-05-16T16:01:26.424Z,7.50
2023-05-16T16:03:53.489Z,11.25
2023-05-16T16:06:21.144Z,7.00
2023-05-16T16:08:48.064Z,6.00
2023-05-16T16:11:14.996Z,11.75
2023-05-16T16:13:42.181Z,11.00
2023-05-16T16:16:09.180Z,9.50
2023-05-16T16:18:36.235Z,9.00
2023-05-16T16:21:03.272Z,14.00
2023-05-16T16:23:31.987Z,11.25
2023-05-16T16:25:59.066Z,8.75
2023-05-16T16:28:26.001Z,10.25
2023-05-16T16:30:52.929Z,13.50
2023-05-16T16:33:19.947Z,20.25
2023-05-16T16:35:46.873Z,12.50
2023-05-16T16:38:13.848Z,15.25
2023-05-16T16:40:40.903Z,11.25
2023-05-16T16:43:07.840Z,13.50
2023-05-16T16:45:34.746Z,19.00
2023-05-16T16:48:01.750Z,13.00
2023-05-16T16:50:28.718Z,15.25
2023-05-16T16:52:56.037Z,18.75
2023-05-16T16:55:22.974Z,13.25
2023-05-16T16:57:49.832Z,17.75
2023-05-16T17:00:17.403Z,20.25
2023-05-16T17:02:44.428Z,12.25
2023-05-16T17:05:11.466Z,15.75
2023-05-16T17:07:38.392Z,14.25
2023-05-16T17:10:07.942Z,8.25
2023-05-16T17:12:35.322Z,11.25
2023-05-16T17:15:02.437Z,16.75
2023-05-16T17:17:29.524Z,16.75
2023-05-16T17:19:56.581Z,13.50
2023-05-16T17:22:23.518Z,11.75
2023-05-16T17:24:50.476Z,12.75
2023-05-16T17:27:17.361Z,10.75
2023-05-16T17:29:44.281Z,14.00
2023-05-16T17:32:11.169Z,11.25
2023-05-16T17:34:38.154Z,13.00
2023-05-16T17:37:06.591Z,10.25
2023-05-16T17:39:34.258Z,12.25
2023-05-16T17:42:01.936Z,11.00
2023-05-16T17:44:28.936Z,15.00
2023-05-16T17:46:55.954Z,8.50
2023-05-16T17:49:23.510Z,12.75
2023-05-16T17:51:53.002Z,13.00
2023-05-16T17:54:21.324Z,14.50
2023-05-16T17:56:51.038Z,14.75
2023-05-16T17:59:18.332Z,13.25
2023-05-16T18:01:46.565Z,9.75
2023-05-16T18:04:14.528Z,12.50
2023-05-16T18:06:42.018Z,21.33
2023-05-16T18:09:10.322Z,30.33
2023-05-16T18:11:40.616Z,15.67
2023-05-16T18:14:12.953Z,12.50
2023-05-16T18:16:40.219Z,20.33
2023-05-16T18:19:08.726Z,14.25
2023-05-16T18:21:36.715Z,15.33
2023-05-16T18:24:03.908Z,13.00
2023-05-16T18:26:31.371Z,20.00
2023-05-16T18:28:58.356Z,23.33
2023-05-16T18:31:25.568Z,19.33
2023-05-16T18:33:52.514Z,17.00
2023-05-16T18:36:21.017Z,12.33
2023-05-16T18:38:48.028Z,18.67
2023-05-16T18:41:15.232Z,19.33
2023-05-16T18:43:42.199Z,18.33
2023-05-16T18:46:09.335Z,20.67
2023-05-16T18:48:36.479Z,20.00
2023-05-16T18:51:03.817Z,17.00
2023-05-16T18:53:31.037Z,23.67
2023-05-16T18:55:58.778Z,24.33
2023-05-16T18:58:25.846Z,13.00
2023-05-16T19:00:52.938Z,20.67
2023-05-16T19:03:20.084Z,22.33
2023-05-16T19:05:47.709Z,14.33
2023-05-16T19:08:14.828Z,20.00
2023-05-16T19:10:41.836Z,30.00
2023-05-16T19:13:09.116Z,24.33
2023-05-16T19:15:37.055Z,24.67
2023-05-16T19:18:06.460Z,31.00
2023-05-16T19:20:34.718Z,26.00
2023-05-16T19:23:02.345Z,27.00
2023-05-16T19:25:29.389Z,20.33
2023-05-16T19:27:56.397Z,12.67
2023-05-16T19:30:23.900Z,19.67
2023-05-16T19:32:51.806Z,26.00
2023-05-16T19:35:19.648Z,17.00
2023-05-16T19:37:46.607Z,26.00
2023-05-16T19:40:19.498Z,19.33
2023-05-16T19:42:46.422Z,24.00
2023-05-16T19:45:13.369Z,25.67
2023-05-16T19:47:40.334Z,25.67
2023-05-16T19:50:08.077Z,24.00
2023-05-16T19:52:36.342Z,22.67
2023-05-16T19:55:04.663Z,27.00
2023-05-16T19:57:31.673Z,27.67
2023-05-16T19:59:58.701Z,24.00
2023-05-16T20:02:25.845Z,30.00
2023-05-16T20:04:54.408Z,26.00
2023-05-16T20:07:23.154Z,35.00
2023-05-16T20:09:50.185Z,35.00
2023-05-16T20:12:17.129Z,34.67
2023-05-16T20:14:44.193Z,36.00
2023-05-16T20:17:11.142Z,37.67
2023-05-16T20:19:43.762Z,30.00
2023-05-16T20:22:11.080Z,32.00
2023-05-16T20:24:38.039Z,26.67
2023-05-16T20:27:05.211Z,25.00
2023-05-16T20:29:34.006Z,19.67
2023-05-16T20:32:01.129Z,17.67
2023-05-16T20:34:28.054Z,18.67
2023-05-16T20:36:54.969Z,23.00
2023-05-16T20:39:21.914Z,24.33
2023-05-16T20:41:48.870Z,44.50
2023-05-16T20:44:16.014Z,37.00
2023-05-16T20:46:43.349Z,37.00
2023-05-16T20:49:10.456Z,46.00
2023-05-16T20:51:37.393Z,45.25
2023-05-16T20:54:04.345Z,37.67
2023-05-16T20:56:31.254Z,32.67
2023-05-16T20:58:58.183Z,31.67
2023-05-16T21:01:25.136Z,23.00
2023-05-16T21:03:52.749Z,21.00
2023-05-16T21:06:19.680Z,19.33
2023-05-16T21:08:46.641Z,16.00
2023-05-16T21:11:13.587Z,10.00
2023-05-16T21:13:40.715Z,12.67
2023-05-16T21:16:07.957Z,8.00
2023-05-16T21:18:35.116Z,8.00
2023-05-16T21:21:02.138Z,9.67
2023-05-16T21:23:29.275Z,8.67
2023-05-16T21:25:56.232Z,8.00
2023-05-16T21:28:23.266Z,9.33
2023-05-16T21:30:50.246Z,9.67
2023-05-16T21:33:17.329Z,10.33
2023-05-16T21:35:44.269Z,8.50
2023-05-16T21:38:11.244Z,11.00
2023-05-16T21:40:38.353Z,26.00
2023-05-16T21:43:05.615Z,24.00
2023-05-16T21:45:32.547Z,20.67
2023-05-16T21:47:59.647Z,11.00
2023-05-16T21:50:26.746Z,7.67
2023-05-16T21:52:53.649Z,10.00
2023-05-16T21:55:20.704Z,9.67
2023-05-16T21:57:47.844Z,11.00
2023-05-16T22:00:16.164Z,12.33
2023-05-16T22:02:43.210Z,10.33
2023-05-16T22:05:10.364Z,11.33
2023-05-16T22:07:37.987Z,10.00
2023-05-16T22:10:05.547Z,7.00
2023-05-16T22:12:32.410Z,8.67
2023-05-16T22:14:59.492Z,13.00
2023-05-16T22:17:26.485Z,8.67
2023-05-16T22:19:53.561Z,8.00
2023-05-16T22:22:20.535Z,8.67
2023-05-16T22:24:47.627Z,7.00
2023-05-16T22:27:14.597Z,7.67
2023-05-16T22:29:41.557Z,7.00
2023-05-16T22:32:09.841Z,10.00
2023-05-16T22:34:40.643Z,10.00
2023-05-16T22:37:10.600Z,10.67
2023-05-16T22:39:38.765Z,9.00
2023-05-16T22:42:06.591Z,12.00
2023-05-16T22:44:33.608Z,11.33
2023-05-16T22:47:00.659Z,9.00
2023-05-16T22:49:27.532Z,11.00
2023-05-16T22:51:54.469Z,13.67
2023-05-16T22:54:21.352Z,11.00
2023-05-16T22:56:48.258Z,13.00
2023-05-16T22:59:15.221Z,11.33
2023-05-16T23:01:42.157Z,12.67
2023-05-16T23:04:09.186Z,12.67
2023-05-16T23:06:36.417Z,11.33
2023-05-16T23:09:04.923Z,10.67
2023-05-16T23:11:32.662Z,10.67
2023-05-16T23:13:59.508Z,8.00
2023-05-16T23:16:26.389Z,13.67
2023-05-16T23:18:53.552Z,8.00
2023-05-16T23:21:20.613Z,12.00
2023-05-16T23:23:47.586Z,10.00
2023-05-16T23:26:14.509Z,10.67
2023-05-16T23:28:41.503Z,10.67
2023-05-16T23:31:08.504Z,11.33
2023-05-16T23:33:35.408Z,12.33
2023-05-16T23:36:02.423Z,18.33
2023-05-16T23:38:29.404Z,16.00
2023-05-16T23:40:56.352Z,11.33
2023-05-16T23:43:23.322Z,12.00
2023-05-16T23:45:50.454Z,12.00
2023-05-16T23:48:17.449Z,8.33
2023-05-16T23:50:44.427Z,10.00
2023-05-16T23:53:11.412Z,12.00
2023-05-16T23:55:38.292Z,10.67
2023-05-16T23:58:05.373Z,11.00
